sensor_id;sensor_type;location;lat;lon;timestamp;pressure;altitude;pressure_sealevel;temperature;humidity
4858;BME280;58975;51.978;8.472;2023-05-19T00:00:35;101414.28;;;7.07;100.00
4858;BME280;58975;51.978;8.472;2023-05-19T00:05:33;101405.25;;;7.11;100.00
4858;BME280;58975;51.978;8.472;2023-05-19T00:10:30;101401.84;;;7.09;100.00
4858;BME280;58975;51.978;8.472;2023-05-19T00:15:29;101402.94;;;7.05;100.00
4858;BME280;58975;51.978;8.472;2023-05-19T00:20:25;101401.50;;;6.98;100.00
4858;BME280;58975;51.978;8.472;2023-05-19T00:25:22;101397.88;;;7.01;100.00
4858;BME280;58975;51.978;8.472;2023-05-19T00:30:18;101384.84;;;7.13;100.00
4858;BME280;58975;51.978;8.472;2023-05-19T00:35:15;101387.66;;;7.10;100.00
4858;BME280;58975;51.978;8.472;2023-05-19T00:40:12;101382.06;;;7.17;100.00
4858;BME280;58975;51.978;8.472;2023-05-19T00:45:09;101380.34;;;7.16;100.00
4858;BME280;58975;51.978;8.472;2023-05-19T00:50:06;101377.06;;;7.10;100.00
4858;BME280;58975;51.978;8.472;2023-05-19T00:55:02;101375.38;;;7.09;100.00
4858;BME280;58975;51.978;8.472;2023-05-19T00:59:59;101380.66;;;7.09;100.00
4858;BME280;58975;51.978;8.472;2023-05-19T01:04:56;101384.41;;;7.05;100.00
4858;BME280;58975;51.978;8.472;2023-05-19T01:09:52;101382.84;;;7.01;100.00
4858;BME280;58975;51.978;8.472;2023-05-19T01:14:49;101383.13;;;6.95;100.00
4858;BME280;58975;51.978;8.472;2023-05-19T01:20:15;101376.25;;;6.91;100.00
4858;BME280;58975;51.978;8.472;2023-05-19T01:25:29;101382.66;;;6.87;100.00
4858;BME280;58975;51.978;8.472;2023-05-19T01:35:28;101384.69;;;6.99;100.00
4858;BME280;58975;51.978;8.472;2023-05-19T01:40:27;101377.34;;;6.87;100.00
4858;BME280;58975;51.978;8.472;2023-05-19T01:45:25;101380.31;;;6.81;100.00
4858;BME280;58975;51.978;8.472;2023-05-19T01:50:23;101375.19;;;6.78;100.00
4858;BME280;58975;51.978;8.472;2023-05-19T01:55:20;101366.69;;;6.89;100.00
4858;BME280;58975;51.978;8.472;2023-05-19T02:00:33;101369.41;;;6.87;100.00
4858;BME280;58975;51.978;8.472;2023-05-19T02:05:54;101369.63;;;6.83;100.00
4858;BME280;58975;51.978;8.472;2023-05-19T02:10:59;101369.41;;;6.87;100.00
4858;BME280;58975;51.978;8.472;2023-05-19T02:16:02;101368.78;;;6.82;100.00
4858;BME280;58975;51.978;8.472;2023-05-19T02:21:00;101367.47;;;6.74;100.00
4858;BME280;58975;51.978;8.472;2023-05-19T02:25:57;101361.31;;;6.73;100.00
4858;BME280;58975;51.978;8.472;2023-05-19T02:30:53;101367.59;;;6.71;100.00
4858;BME280;58975;51.978;8.472;2023-05-19T02:35:49;101366.44;;;6.76;100.00
4858;BME280;58975;51.978;8.472;2023-05-19T02:40:46;101368.16;;;6.77;100.00
4858;BME280;58975;51.978;8.472;2023-05-19T02:45:43;101358.81;;;6.70;100.00
4858;BME280;58975;51.978;8.472;2023-05-19T02:50:39;101359.91;;;6.66;100.00
4858;BME280;58975;51.978;8.472;2023-05-19T02:55:35;101353.81;;;6.64;100.00
4858;BME280;58975;51.978;8.472;2023-05-19T03:00:32;101360.50;;;6.71;100.00
4858;BME280;58975;51.978;8.472;2023-05-19T03:05:29;101358.19;;;6.65;100.00
4858;BME280;58975;51.978;8.472;2023-05-19T03:10:26;101359.31;;;6.59;100.00
4858;BME280;58975;51.978;8.472;2023-05-19T03:15:23;101357.06;;;6.52;100.00
4858;BME280;58975;51.978;8.472;2023-05-19T03:20:19;101355.31;;;6.51;100.00
4858;BME280;58975;51.978;8.472;2023-05-19T03:25:16;101355.41;;;6.49;100.00
4858;BME280;58975;51.978;8.472;2023-05-19T03:30:13;101348.50;;;6.47;100.00
4858;BME280;58975;51.978;8.472;2023-05-19T03:35:09;101351.91;;;6.49;100.00
4858;BME280;58975;51.978;8.472;2023-05-19T03:40:07;101351.06;;;6.48;100.00
4858;BME280;58975;51.978;8.472;2023-05-19T03:45:04;101355.63;;;6.45;100.00
4858;BME280;58975;51.978;8.472;2023-05-19T03:50:00;101347.84;;;6.42;100.00
4858;BME280;58975;51.978;8.472;2023-05-19T03:54:57;101359.22;;;6.44;100.00
4858;BME280;58975;51.978;8.472;2023-05-19T03:59:53;101354.41;;;6.52;100.00
4858;BME280;58975;51.978;8.472;2023-05-19T04:04:50;101359.97;;;6.64;100.00
4858;BME280;58975;51.978;8.472;2023-05-19T04:09:46;101370.97;;;6.74;100.00
4858;BME280;58975;51.978;8.472;2023-05-19T04:14:43;101377.56;;;6.83;100.00
4858;BME280;58975;51.978;8.472;2023-05-19T04:19:40;101378.16;;;6.89;100.00
4858;BME280;58975;51.978;8.472;2023-05-19T04:24:36;101376.81;;;6.98;100.00
4858;BME280;58975;51.978;8.472;2023-05-19T04:29:33;101374.34;;;7.12;100.00
4858;BME280;58975;51.978;8.472;2023-05-19T04:34:30;101374.09;;;7.17;100.00
4858;BME280;58975;51.978;8.472;2023-05-19T04:39:27;101375.44;;;7.25;100.00
4858;BME280;58975;51.978;8.472;2023-05-19T04:44:23;101372.41;;;7.33;100.00
4858;BME280;58975;51.978;8.472;2023-05-19T04:49:20;101375.09;;;7.48;100.00
4858;BME280;58975;51.978;8.472;2023-05-19T04:54:16;101372.34;;;7.67;100.00
4858;BME280;58975;51.978;8.472;2023-05-19T04:59:12;101370.13;;;7.75;100.00
4858;BME280;58975;51.978;8.472;2023-05-19T05:04:09;101362.47;;;7.86;100.00
4858;BME280;58975;51.978;8.472;2023-05-19T05:09:06;101368.09;;;7.96;100.00
4858;BME280;58975;51.978;8.472;2023-05-19T05:14:03;101364.09;;;8.04;100.00
4858;BME280;58975;51.978;8.472;2023-05-19T05:19:00;101355.47;;;8.17;100.00
4858;BME280;58975;51.978;8.472;2023-05-19T05:23:57;101362.78;;;8.29;100.00
4858;BME280;58975;51.978;8.472;2023-05-19T05:28:53;101367.47;;;8.55;100.00
4858;BME280;58975;51.978;8.472;2023-05-19T05:33:50;101359.59;;;8.69;100.00
4858;BME280;58975;51.978;8.472;2023-05-19T05:38:46;101362.53;;;8.94;100.00
4858;BME280;58975;51.978;8.472;2023-05-19T05:43:43;101363.25;;;9.12;100.00
4858;BME280;58975;51.978;8.472;2023-05-19T05:48:39;101360.00;;;9.51;100.00
4858;BME280;58975;51.978;8.472;2023-05-19T05:53:40;101374.84;;;9.83;100.00
4858;BME280;58975;51.978;8.472;2023-05-19T05:58:39;101371.22;;;10.27;100.00
4858;BME280;58975;51.978;8.472;2023-05-19T06:03:40;101368.94;;;10.35;100.00
4858;BME280;58975;51.978;8.472;2023-05-19T06:08:38;101369.47;;;10.54;100.00
4858;BME280;58975;51.978;8.472;2023-05-19T06:13:35;101371.19;;;10.95;100.00
4858;BME280;58975;51.978;8.472;2023-05-19T06:18:31;101372.84;;;11.22;100.00
4858;BME280;58975;51.978;8.472;2023-05-19T06:23:29;101366.09;;;11.56;100.00
4858;BME280;58975;51.978;8.472;2023-05-19T06:28:25;101370.75;;;11.65;100.00
4858;BME280;58975;51.978;8.472;2023-05-19T06:33:22;101361.25;;;12.12;100.00
4858;BME280;58975;51.978;8.472;2023-05-19T06:38:20;101360.59;;;12.21;100.00
4858;BME280;58975;51.978;8.472;2023-05-19T06:43:16;101351.19;;;12.75;100.00
4858;BME280;58975;51.978;8.472;2023-05-19T06:48:13;101353.28;;;13.07;100.00
4858;BME280;58975;51.978;8.472;2023-05-19T06:53:09;101345.78;;;13.12;100.00
4858;BME280;58975;51.978;8.472;2023-05-19T06:58:06;101344.13;;;13.33;100.00
4858;BME280;58975;51.978;8.472;2023-05-19T07:03:03;101349.56;;;14.00;100.00
4858;BME280;58975;51.978;8.472;2023-05-19T07:07:59;101350.06;;;14.38;100.00
4858;BME280;58975;51.978;8.472;2023-05-19T07:12:56;101348.34;;;14.15;99.63
4858;BME280;58975;51.978;8.472;2023-05-19T07:17:53;101347.53;;;14.68;95.52
4858;BME280;58975;51.978;8.472;2023-05-19T07:22:50;101350.84;;;14.61;91.53
4858;BME280;58975;51.978;8.472;2023-05-19T07:27:46;101340.41;;;14.79;86.87
4858;BME280;58975;51.978;8.472;2023-05-19T07:32:42;101338.78;;;15.19;89.19
4858;BME280;58975;51.978;8.472;2023-05-19T07:37:39;101346.50;;;15.12;89.53
4858;BME280;58975;51.978;8.472;2023-05-19T07:42:35;101333.13;;;15.22;83.48
4858;BME280;58975;51.978;8.472;2023-05-19T07:47:32;101340.03;;;15.36;81.76
4858;BME280;58975;51.978;8.472;2023-05-19T07:52:28;101334.06;;;15.32;81.60
4858;BME280;58975;51.978;8.472;2023-05-19T07:57:25;101333.28;;;15.62;77.20
4858;BME280;58975;51.978;8.472;2023-05-19T08:02:21;101338.66;;;15.21;83.67
4858;BME280;58975;51.978;8.472;2023-05-19T08:07:18;101328.16;;;15.18;76.17
4858;BME280;58975;51.978;8.472;2023-05-19T08:12:14;101327.25;;;15.70;71.43
4858;BME280;58975;51.978;8.472;2023-05-19T08:17:10;101321.13;;;16.38;72.29
4858;BME280;58975;51.978;8.472;2023-05-19T08:22:07;101325.88;;;16.84;71.62
4858;BME280;58975;51.978;8.472;2023-05-19T08:27:04;101315.13;;;16.84;64.99
4858;BME280;58975;51.978;8.472;2023-05-19T08:32:00;101319.22;;;16.59;64.99
4858;BME280;58975;51.978;8.472;2023-05-19T08:36:57;101303.44;;;16.54;66.09
4858;BME280;58975;51.978;8.472;2023-05-19T08:41:55;101308.19;;;16.72;66.71
4858;BME280;58975;51.978;8.472;2023-05-19T08:46:53;101300.75;;;16.54;64.32
4858;BME280;58975;51.978;8.472;2023-05-19T08:57:00;101280.00;;;17.61;56.33
4858;BME280;58975;51.978;8.472;2023-05-19T09:01:57;101283.69;;;17.13;58.93
4858;BME280;58975;51.978;8.472;2023-05-19T09:06:54;101285.31;;;17.43;64.12
4858;BME280;58975;51.978;8.472;2023-05-19T09:11:50;101275.75;;;17.68;54.28
4858;BME280;58975;51.978;8.472;2023-05-19T09:16:47;101274.06;;;17.67;55.75
4858;BME280;58975;51.978;8.472;2023-05-19T09:21:57;101244.19;;;16.85;54.64
4858;BME280;58975;51.978;8.472;2023-05-19T09:26:55;101265.94;;;17.20;56.92
4858;BME280;58975;51.978;8.472;2023-05-19T09:31:55;101264.81;;;17.69;56.55
4858;BME280;58975;51.978;8.472;2023-05-19T09:36:56;101262.19;;;17.87;52.63
4858;BME280;58975;51.978;8.472;2023-05-19T09:41:55;101262.41;;;18.03;53.56
4858;BME280;58975;51.978;8.472;2023-05-19T09:46:54;101248.91;;;17.29;54.47
4858;BME280;58975;51.978;8.472;2023-05-19T09:51:53;101243.31;;;18.14;55.01
4858;BME280;58975;51.978;8.472;2023-05-19T09:57:02;101232.84;;;18.47;51.90
4858;BME280;58975;51.978;8.472;2023-05-19T10:02:00;101242.16;;;17.72;51.49
4858;BME280;58975;51.978;8.472;2023-05-19T10:06:58;101230.25;;;17.18;53.46
4858;BME280;58975;51.978;8.472;2023-05-19T10:11:56;101225.88;;;18.54;49.59
4858;BME280;58975;51.978;8.472;2023-05-19T10:16:54;101214.91;;;18.37;47.03
4858;BME280;58975;51.978;8.472;2023-05-19T10:21:52;101218.56;;;17.74;48.94
4858;BME280;58975;51.978;8.472;2023-05-19T10:26:57;101213.06;;;17.93;48.91
4858;BME280;58975;51.978;8.472;2023-05-19T10:32:00;101201.69;;;18.62;47.57
4858;BME280;58975;51.978;8.472;2023-05-19T10:42:41;101196.09;;;18.81;47.66
4858;BME280;58975;51.978;8.472;2023-05-19T10:47:41;101200.59;;;18.98;46.31
4858;BME280;58975;51.978;8.472;2023-05-19T10:52:39;101195.31;;;18.71;45.54
4858;BME280;58975;51.978;8.472;2023-05-19T10:57:35;101188.66;;;19.34;46.54
4858;BME280;58975;51.978;8.472;2023-05-19T11:02:50;101195.91;;;20.10;45.42
4858;BME280;58975;51.978;8.472;2023-05-19T11:07:58;101192.78;;;20.31;44.97
4858;BME280;58975;51.978;8.472;2023-05-19T11:13:03;101185.84;;;20.52;45.21
4858;BME280;58975;51.978;8.472;2023-05-19T11:18:03;101181.63;;;20.42;46.28
4858;BME280;58975;51.978;8.472;2023-05-19T11:23:13;101175.81;;;20.20;46.21
4858;BME280;58975;51.978;8.472;2023-05-19T11:28:10;101174.91;;;19.96;46.71
4858;BME280;58975;51.978;8.472;2023-05-19T11:33:08;101182.22;;;19.27;47.42
4858;BME280;58975;51.978;8.472;2023-05-19T11:38:06;101169.28;;;19.13;47.32
4858;BME280;58975;51.978;8.472;2023-05-19T11:43:02;101177.94;;;19.17;44.96
4858;BME280;58975;51.978;8.472;2023-05-19T11:47:59;101166.69;;;17.99;46.47
4858;BME280;58975;51.978;8.472;2023-05-19T11:52:59;101180.84;;;18.01;49.50
4858;BME280;58975;51.978;8.472;2023-05-19T12:02:57;101170.97;;;18.80;46.18
4858;BME280;58975;51.978;8.472;2023-05-19T12:07:54;101167.28;;;18.64;45.68
4858;BME280;58975;51.978;8.472;2023-05-19T12:12:51;101171.06;;;18.18;48.16
4858;BME280;58975;51.978;8.472;2023-05-19T12:17:49;101173.72;;;18.88;47.98
4858;BME280;58975;51.978;8.472;2023-05-19T12:22:46;101168.78;;;19.10;46.48
4858;BME280;58975;51.978;8.472;2023-05-19T12:27:43;101158.63;;;19.63;44.33
4858;BME280;58975;51.978;8.472;2023-05-19T12:32:40;101149.16;;;19.59;45.23
4858;BME280;58975;51.978;8.472;2023-05-19T12:37:39;101155.75;;;19.31;44.88
4858;BME280;58975;51.978;8.472;2023-05-19T12:42:36;101146.94;;;19.55;45.61
4858;BME280;58975;51.978;8.472;2023-05-19T12:47:34;101138.38;;;19.42;46.13
4858;BME280;58975;51.978;8.472;2023-05-19T12:52:32;101130.53;;;20.22;45.56
4858;BME280;58975;51.978;8.472;2023-05-19T12:57:33;101134.63;;;20.35;45.14
4858;BME280;58975;51.978;8.472;2023-05-19T13:02:32;101123.09;;;20.73;42.82
4858;BME280;58975;51.978;8.472;2023-05-19T13:07:29;101131.22;;;20.33;48.41
4858;BME280;58975;51.978;8.472;2023-05-19T13:12:25;101134.41;;;19.54;45.14
4858;BME280;58975;51.978;8.472;2023-05-19T13:17:22;101121.59;;;19.48;45.46
4858;BME280;58975;51.978;8.472;2023-05-19T13:22:19;101123.91;;;20.09;45.90
4858;BME280;58975;51.978;8.472;2023-05-19T13:27:16;101121.91;;;20.59;46.27
4858;BME280;58975;51.978;8.472;2023-05-19T13:32:12;101119.72;;;20.55;42.93
4858;BME280;58975;51.978;8.472;2023-05-19T13:37:08;101115.44;;;20.04;44.77
4858;BME280;58975;51.978;8.472;2023-05-19T13:42:06;101120.06;;;20.44;45.63
4858;BME280;58975;51.978;8.472;2023-05-19T13:47:03;101127.13;;;20.20;44.40
4858;BME280;58975;51.978;8.472;2023-05-19T13:51:59;101107.38;;;20.44;44.86
4858;BME280;58975;51.978;8.472;2023-05-19T13:56:56;101091.91;;;20.93;43.31
4858;BME280;58975;51.978;8.472;2023-05-19T14:01:52;101116.56;;;21.14;45.85
4858;BME280;58975;51.978;8.472;2023-05-19T14:06:49;101106.47;;;19.79;47.42
4858;BME280;58975;51.978;8.472;2023-05-19T14:11:46;101102.59;;;19.40;44.39
4858;BME280;58975;51.978;8.472;2023-05-19T14:16:42;101092.75;;;19.22;45.52
4858;BME280;58975;51.978;8.472;2023-05-19T14:21:39;101094.84;;;19.03;46.78
4858;BME280;58975;51.978;8.472;2023-05-19T14:26:36;101091.66;;;20.32;45.34
4858;BME280;58975;51.978;8.472;2023-05-19T14:31:32;101085.22;;;20.57;42.61
4858;BME280;58975;51.978;8.472;2023-05-19T14:36:28;101086.78;;;21.14;42.20
4858;BME280;58975;51.978;8.472;2023-05-19T14:41:25;101084.53;;;21.57;42.27
4858;BME280;58975;51.978;8.472;2023-05-19T14:46:21;101092.03;;;21.08;40.83
4858;BME280;58975;51.978;8.472;2023-05-19T14:51:18;101102.44;;;19.99;43.07
4858;BME280;58975;51.978;8.472;2023-05-19T14:56:14;101096.91;;;20.41;42.43
4858;BME280;58975;51.978;8.472;2023-05-19T15:01:11;101097.41;;;20.37;42.16
4858;BME280;58975;51.978;8.472;2023-05-19T15:06:08;101100.84;;;21.02;41.31
4858;BME280;58975;51.978;8.472;2023-05-19T15:11:05;101102.88;;;21.55;40.11
4858;BME280;58975;51.978;8.472;2023-05-19T15:16:02;101077.81;;;21.14;39.44
4858;BME280;58975;51.978;8.472;2023-05-19T15:21:12;101085.22;;;20.49;39.73
4858;BME280;58975;51.978;8.472;2023-05-19T15:26:08;101075.13;;;20.35;42.29
4858;BME280;58975;51.978;8.472;2023-05-19T15:31:05;101086.75;;;19.45;44.03
4858;BME280;58975;51.978;8.472;2023-05-19T15:36:01;101092.63;;;18.98;45.36
4858;BME280;58975;51.978;8.472;2023-05-19T15:40:58;101075.41;;;19.91;42.46
4858;BME280;58975;51.978;8.472;2023-05-19T15:45:54;101067.63;;;20.53;43.83
4858;BME280;58975;51.978;8.472;2023-05-19T15:50:51;101070.41;;;20.92;40.30
4858;BME280;58975;51.978;8.472;2023-05-19T15:55:47;101074.06;;;19.95;42.27
4858;BME280;58975;51.978;8.472;2023-05-19T16:00:43;101073.84;;;19.22;44.72
4858;BME280;58975;51.978;8.472;2023-05-19T16:05:40;101069.34;;;18.97;46.07
4858;BME280;58975;51.978;8.472;2023-05-19T16:10:36;101057.28;;;19.67;45.58
4858;BME280;58975;51.978;8.472;2023-05-19T16:15:33;101059.13;;;20.72;42.02
4858;BME280;58975;51.978;8.472;2023-05-19T16:20:29;101048.84;;;21.22;40.65
4858;BME280;58975;51.978;8.472;2023-05-19T16:25:26;101034.69;;;22.49;40.09
4858;BME280;58975;51.978;8.472;2023-05-19T16:30:22;101039.41;;;22.17;39.64
4858;BME280;58975;51.978;8.472;2023-05-19T16:35:22;101043.06;;;22.25;38.53
4858;BME280;58975;51.978;8.472;2023-05-19T16:40:18;101034.34;;;21.92;39.30
4858;BME280;58975;51.978;8.472;2023-05-19T16:45:15;101039.72;;;20.60;40.99
4858;BME280;58975;51.978;8.472;2023-05-19T16:50:12;101047.00;;;20.27;42.75
4858;BME280;58975;51.978;8.472;2023-05-19T16:55:09;101044.91;;;21.25;41.39
4858;BME280;58975;51.978;8.472;2023-05-19T17:00:06;101036.94;;;26.23;34.37
4858;BME280;58975;51.978;8.472;2023-05-19T17:05:03;101027.00;;;26.74;32.49
4858;BME280;58975;51.978;8.472;2023-05-19T17:09:59;101026.88;;;29.32;29.46
4858;BME280;58975;51.978;8.472;2023-05-19T17:14:56;101026.78;;;29.02;30.18
4858;BME280;58975;51.978;8.472;2023-05-19T17:19:52;101014.81;;;28.35;29.74
4858;BME280;58975;51.978;8.472;2023-05-19T17:24:48;101019.41;;;29.02;28.43
4858;BME280;58975;51.978;8.472;2023-05-19T17:29:45;101021.84;;;29.88;28.51
4858;BME280;58975;51.978;8.472;2023-05-19T17:34:41;101015.00;;;29.68;27.81
4858;BME280;58975;51.978;8.472;2023-05-19T17:39:37;101035.06;;;26.23;31.33
4858;BME280;58975;51.978;8.472;2023-05-19T17:44:34;101042.72;;;22.80;36.94
4858;BME280;58975;51.978;8.472;2023-05-19T17:49:30;101045.13;;;19.96;40.73
4858;BME280;58975;51.978;8.472;2023-05-19T17:54:27;101054.50;;;18.41;43.71
4858;BME280;58975;51.978;8.472;2023-05-19T17:59:24;101058.03;;;17.99;46.25
4858;BME280;58975;51.978;8.472;2023-05-19T18:04:20;101059.94;;;17.71;47.58
4858;BME280;58975;51.978;8.472;2023-05-19T18:09:18;101069.88;;;17.70;49.06
4858;BME280;58975;51.978;8.472;2023-05-19T18:14:14;101060.88;;;20.16;44.72
4858;BME280;58975;51.978;8.472;2023-05-19T18:19:11;101053.31;;;22.89;39.81
4858;BME280;58975;51.978;8.472;2023-05-19T18:24:07;101060.13;;;22.85;38.86
4858;BME280;58975;51.978;8.472;2023-05-19T18:29:04;101065.09;;;21.22;41.99
4858;BME280;58975;51.978;8.472;2023-05-19T18:34:00;101069.88;;;21.12;42.74
4858;BME280;58975;51.978;8.472;2023-05-19T18:38:58;101071.94;;;20.86;43.75
4858;BME280;58975;51.978;8.472;2023-05-19T18:43:55;101068.44;;;19.72;45.85
4858;BME280;58975;51.978;8.472;2023-05-19T18:48:51;101079.28;;;19.30;46.52
4858;BME280;58975;51.978;8.472;2023-05-19T18:53:48;101085.34;;;18.47;48.71
4858;BME280;58975;51.978;8.472;2023-05-19T18:58:45;101090.97;;;17.75;50.48
4858;BME280;58975;51.978;8.472;2023-05-19T19:03:41;101107.34;;;17.64;51.21
4858;BME280;58975;51.978;8.472;2023-05-19T19:08:38;101108.78;;;16.94;54.91
4858;BME280;58975;51.978;8.472;2023-05-19T19:13:37;101104.66;;;16.24;55.91
4858;BME280;58975;51.978;8.472;2023-05-19T19:18:34;101112.88;;;15.75;57.47
4858;BME280;58975;51.978;8.472;2023-05-19T19:23:31;101122.94;;;15.42;61.37
4858;BME280;58975;51.978;8.472;2023-05-19T19:28:28;101128.78;;;15.17;62.22
4858;BME280;58975;51.978;8.472;2023-05-19T19:33:24;101129.53;;;14.98;64.34
4858;BME280;58975;51.978;8.472;2023-05-19T19:38:21;101122.72;;;14.85;65.56
4858;BME280;58975;51.978;8.472;2023-05-19T19:43:17;101130.66;;;14.65;65.88
4858;BME280;58975;51.978;8.472;2023-05-19T19:48:14;101140.25;;;14.47;68.61
4858;BME280;58975;51.978;8.472;2023-05-19T19:53:10;101139.38;;;14.26;73.12
4858;BME280;58975;51.978;8.472;2023-05-19T19:58:06;101142.31;;;14.12;75.41
4858;BME280;58975;51.978;8.472;2023-05-19T20:03:03;101147.50;;;13.93;79.17
4858;BME280;58975;51.978;8.472;2023-05-19T20:08:01;101154.25;;;13.87;81.17
4858;BME280;58975;51.978;8.472;2023-05-19T20:12:57;101150.97;;;13.72;84.31
4858;BME280;58975;51.978;8.472;2023-05-19T20:17:54;101158.31;;;13.59;87.16
4858;BME280;58975;51.978;8.472;2023-05-19T20:22:51;101157.50;;;13.48;93.01
4858;BME280;58975;51.978;8.472;2023-05-19T20:27:47;101163.69;;;13.26;98.43
4858;BME280;58975;51.978;8.472;2023-05-19T20:32:43;101163.09;;;13.22;99.13
4858;BME280;58975;51.978;8.472;2023-05-19T20:37:41;101170.50;;;13.19;100.00
4858;BME280;58975;51.978;8.472;2023-05-19T20:42:38;101158.06;;;13.07;100.00
4858;BME280;58975;51.978;8.472;2023-05-19T20:47:35;101151.00;;;12.95;100.00
4858;BME280;58975;51.978;8.472;2023-05-19T20:52:31;101153.69;;;12.84;100.00
4858;BME280;58975;51.978;8.472;2023-05-19T20:57:28;101155.84;;;12.78;100.00
4858;BME280;58975;51.978;8.472;2023-05-19T21:02:24;101156.34;;;12.72;100.00
4858;BME280;58975;51.978;8.472;2023-05-19T21:07:21;101154.00;;;12.57;100.00
4858;BME280;58975;51.978;8.472;2023-05-19T21:12:17;101159.66;;;12.41;100.00
4858;BME280;58975;51.978;8.472;2023-05-19T21:17:17;101161.53;;;12.28;100.00
4858;BME280;58975;51.978;8.472;2023-05-19T21:22:14;101162.25;;;12.19;100.00
4858;BME280;58975;51.978;8.472;2023-05-19T21:27:10;101160.59;;;12.05;100.00
4858;BME280;58975;51.978;8.472;2023-05-19T21:32:07;101164.41;;;11.90;100.00
4858;BME280;58975;51.978;8.472;2023-05-19T21:37:04;101169.78;;;11.77;100.00
4858;BME280;58975;51.978;8.472;2023-05-19T21:42:01;101168.50;;;11.70;100.00
4858;BME280;58975;51.978;8.472;2023-05-19T21:46:57;101165.31;;;11.65;100.00
4858;BME280;58975;51.978;8.472;2023-05-19T21:51:54;101170.16;;;11.60;100.00
4858;BME280;58975;51.978;8.472;2023-05-19T21:56:50;101175.06;;;11.54;100.00
4858;BME280;58975;51.978;8.472;2023-05-19T22:01:47;101164.56;;;11.39;100.00
4858;BME280;58975;51.978;8.472;2023-05-19T22:06:44;101166.78;;;11.33;100.00
4858;BME280;58975;51.978;8.472;2023-05-19T22:11:40;101163.38;;;11.31;100.00
4858;BME280;58975;51.978;8.472;2023-05-19T22:16:37;101161.50;;;11.20;100.00
4858;BME280;58975;51.978;8.472;2023-05-19T22:21:33;101167.16;;;11.16;100.00
4858;BME280;58975;51.978;8.472;2023-05-19T22:26:30;101162.91;;;11.13;100.00
4858;BME280;58975;51.978;8.472;2023-05-19T22:31:27;101164.47;;;11.16;100.00
4858;BME280;58975;51.978;8.472;2023-05-19T22:36:24;101173.22;;;11.18;100.00
4858;BME280;58975;51.978;8.472;2023-05-19T22:41:21;101175.47;;;11.11;100.00
4858;BME280;58975;51.978;8.472;2023-05-19T22:46:17;101167.25;;;11.14;100.00
4858;BME280;58975;51.978;8.472;2023-05-19T22:51:14;101174.72;;;11.09;100.00
4858;BME280;58975;51.978;8.472;2023-05-19T22:56:11;101174.06;;;11.06;100.00
4858;BME280;58975;51.978;8.472;2023-05-19T23:01:07;101169.28;;;11.11;100.00
4858;BME280;58975;51.978;8.472;2023-05-19T23:06:04;101171.09;;;11.10;100.00
4858;BME280;58975;51.978;8.472;2023-05-19T23:11:00;101173.34;;;11.16;100.00
4858;BME280;58975;51.978;8.472;2023-05-19T23:15:57;101180.47;;;11.16;100.00
4858;BME280;58975;51.978;8.472;2023-05-19T23:20:54;101181.97;;;11.20;100.00
4858;BME280;58975;51.978;8.472;2023-05-19T23:25:50;101183.22;;;11.39;100.00
4858;BME280;58975;51.978;8.472;2023-05-19T23:30:46;101173.72;;;11.35;100.00
4858;BME280;58975;51.978;8.472;2023-05-19T23:35:45;101170.66;;;11.29;100.00
4858;BME280;58975;51.978;8.472;2023-05-19T23:40:41;101165.41;;;11.40;100.00
4858;BME280;58975;51.978;8.472;2023-05-19T23:45:38;101158.50;;;11.25;100.00
4858;BME280;58975;51.978;8.472;2023-05-19T23:50:34;101158.78;;;11.33;100.00
4858;BME280;58975;51.978;8.472;2023-05-19T23:55:31;101169.34;;;11.47;100.00
